Time;durP1;ratioP1;P1;durP2;ratioP2;P2;SDS_P1;SDS_P2;PMS_P1;PMS_P2;Temp;Humidity;BMP_temperature;BMP_pressure;BME280_temperature;BME280_humidity;BME280_pressure;Samples;Min_cycle;Max_cycle;Signal;HPM_P1;HPM_P2
2022/08/04 00:00:04;;;;;;;3.70;3.40;;;26.40;68.50;;;27.60;45.22;100269.50;5016103;28;20628;-69
2022/08/04 00:02:50;;;;;;;6.97;4.10;;;26.40;68.60;;;27.55;45.01;100263.22;5024731;28;20702;-74
2022/08/04 00:06:03;;;;;;;4.00;3.70;;;26.40;68.80;;;27.59;45.23;100259.84;5031565;28;20633;-70
2022/08/04 00:08:54;;;;;;;8.43;3.20;;;26.40;69.00;;;27.55;45.44;100263.22;5028851;28;20617;-69
2022/08/04 00:11:25;;;;;;;6.63;3.50;;;26.40;69.30;;;27.49;45.83;100264.13;5014351;28;20748;-70
2022/08/04 00:14:10;;;;;;;3.43;3.20;;;26.30;69.70;;;27.34;46.17;100261.03;5015680;28;20615;-69
2022/08/04 00:16:40;;;;;;;5.10;4.07;;;26.30;70.10;;;27.29;46.43;100264.38;5015172;28;20619;-71
2022/08/04 00:19:17;;;;;;;6.03;3.53;;;26.20;70.40;;;27.38;46.20;100262.25;4997810;28;20664;-69
2022/08/04 00:21:55;;;;;;;3.93;3.60;;;26.20;70.60;;;27.41;46.16;100270.63;5033233;28;20657;-69
2022/08/04 00:24:22;;;;;;;4.60;3.83;;;26.20;70.50;;;27.33;46.40;100265.56;5013546;28;20636;-71
2022/08/04 00:26:53;;;;;;;4.70;3.30;;;26.20;70.90;;;27.34;45.80;100259.19;5032212;28;20632;-69
2022/08/04 00:29:21;;;;;;;5.90;4.90;;;26.20;70.60;;;27.38;46.66;100257.69;5032039;28;20724;-69
2022/08/04 00:31:49;;;;;;;5.93;4.20;;;26.20;71.10;;;27.38;46.54;100267.59;5016009;28;20629;-70
2022/08/04 00:34:25;;;;;;;5.20;3.97;;;26.20;71.50;;;27.38;46.56;100262.25;5032263;28;20620;-69
2022/08/04 00:36:54;;;;;;;3.63;3.43;;;26.20;71.40;;;27.35;46.88;100263.50;5032323;28;20767;-70
2022/08/04 00:39:21;;;;;;;6.33;3.60;;;26.20;71.40;;;27.34;46.39;100261.03;5031296;28;20661;-69
2022/08/04 00:42:19;;;;;;;9.27;3.33;;;26.20;71.30;;;27.36;46.17;100257.13;5031526;28;20637;-70
2022/08/04 00:45:18;;;;;;;4.00;3.70;;;26.20;71.20;;;27.39;45.94;100256.66;5030445;28;20625;-71
2022/08/04 00:48:09;;;;;;;5.87;3.93;;;26.20;71.10;;;27.37;46.45;100261.41;4978162;28;20664;-70
2022/08/04 00:50:57;;;;;;;3.80;3.50;;;26.20;71.30;;;27.30;46.42;100270.56;5011191;28;21068;-70
2022/08/04 00:54:01;;;;;;;6.27;3.70;;;26.20;71.70;;;27.39;46.46;100270.03;5030584;28;20732;-69
2022/08/04 00:56:40;;;;;;;8.33;3.67;;;26.20;71.90;;;27.34;46.08;100267.22;5031098;28;20970;-73
2022/08/04 00:59:54;;;;;;;3.80;3.50;;;26.20;71.60;;;27.28;45.75;100264.63;5030452;28;20668;-70
2022/08/04 01:02:45;;;;;;;4.23;3.40;;;26.10;70.80;;;27.19;45.66;100268.66;5029165;28;21032;-71
2022/08/04 01:05:17;;;;;;;3.50;3.30;;;26.00;70.70;;;27.24;45.37;100264.25;5027962;28;20639;-69
2022/08/04 01:08:08;;;;;;;6.57;3.80;;;26.00;70.70;;;27.27;45.18;100269.16;5029720;28;20732;-69
2022/08/04 01:11:06;;;;;;;6.60;3.33;;;26.00;70.40;;;27.17;44.46;100260.03;5027984;28;21003;-74
2022/08/04 01:13:41;;;;;;;4.90;3.40;;;26.00;69.70;;;27.14;44.39;100273.88;5030887;28;20726;-70
2022/08/04 01:16:10;;;;;;;3.40;3.20;;;25.90;69.30;;;27.11;44.54;100277.00;5030309;28;20646;-69
2022/08/04 01:18:59;;;;;;;3.77;3.47;;;25.90;69.50;;;27.09;44.63;100268.38;5013240;28;20661;-70
2022/08/04 01:21:42;;;;;;;3.07;2.87;;;25.90;69.60;;;27.05;44.43;100268.00;5029828;28;20676;-70
2022/08/04 01:25:09;;;;;;;3.07;2.87;;;25.90;69.50;;;26.95;44.59;100261.56;5029447;28;21013;-72
2022/08/04 01:28:19;;;;;;;5.13;3.17;;;25.90;69.40;;;26.86;44.57;100266.38;4974199;28;20633;-70
2022/08/04 01:30:49;;;;;;;4.20;3.07;;;25.70;69.20;;;26.80;44.36;100270.78;5012393;28;20668;-70
2022/08/04 01:33:18;;;;;;;3.70;3.40;;;25.70;69.20;;;26.77;44.57;100270.41;5013194;28;21248;-69
2022/08/04 01:36:01;;;;;;;3.37;3.07;;;25.60;69.60;;;26.72;44.83;100267.56;5031325;28;20644;-72
2022/08/04 01:38:35;;;;;;;4.00;3.70;;;25.50;69.80;;;26.66;45.05;100260.44;5031021;28;21079;-70
2022/08/04 01:41:07;;;;;;;4.40;3.30;;;25.50;70.10;;;26.59;45.27;100262.38;5029418;28;21261;-70
2022/08/04 01:43:40;;;;;;;3.80;3.50;;;25.40;70.30;;;26.49;45.58;100257.50;5012913;28;20613;-71
2022/08/04 01:46:11;;;;;;;12.93;9.00;;;25.40;70.80;;;26.47;45.82;100246.22;5029963;28;20636;-69
2022/08/04 01:48:41;;;;;;;12.53;9.40;;;25.30;71.00;;;26.44;46.13;100245.84;5031427;28;20616;-70
2022/08/04 01:51:09;;;;;;;6.13;3.90;;;25.20;71.40;;;26.40;46.38;100252.69;5013442;28;20637;-69
2022/08/04 01:53:41;;;;;;;7.13;3.57;;;25.20;71.90;;;26.41;46.49;100247.13;5031901;28;20623;-69
2022/08/04 01:56:10;;;;;;;3.80;3.27;;;25.20;72.40;;;26.32;47.39;100247.63;5030084;28;21080;-69
2022/08/04 01:58:39;;;;;;;7.23;3.30;;;25.20;73.40;;;26.31;48.03;100248.66;5012386;28;21443;-69
2022/08/04 02:01:09;;;;;;;3.70;3.40;;;25.10;73.70;;;26.20;48.03;100247.53;5029336;28;20660;-70
2022/08/04 02:03:40;;;;;;;4.60;3.00;;;25.10;74.10;;;26.12;48.05;100242.47;5029893;28;20613;-70
2022/08/04 02:06:59;;;;;;;5.33;3.53;;;25.00;74.50;;;26.18;48.10;100246.94;5030997;28;20629;-72
2022/08/04 02:09:26;;;;;;;4.90;3.20;;;25.00;74.80;;;26.15;48.27;100237.50;5012057;28;20621;-70
2022/08/04 02:12:22;;;;;;;3.13;2.87;;;25.00;75.10;;;26.11;48.63;100243.50;5030072;28;20732;-70
2022/08/04 02:14:56;;;;;;;3.43;3.23;;;24.90;75.30;;;26.15;48.20;100240.19;5029724;28;20643;-70
2022/08/04 02:18:02;;;;;;;3.83;3.43;;;25.00;75.70;;;26.10;48.41;100242.72;5012963;28;20639;-70
2022/08/04 02:20:37;;;;;;;5.00;3.40;;;24.90;75.80;;;26.07;48.70;100245.78;5025647;28;20641;-70
2022/08/04 02:23:14;;;;;;;7.20;4.00;;;24.90;76.00;;;26.14;48.29;100230.53;5029235;28;20641;-70
2022/08/04 02:26:02;;;;;;;4.20;3.83;;;24.90;76.10;;;26.19;48.22;100245.91;5030435;28;20628;-68
2022/08/04 02:28:47;;;;;;;8.13;4.40;;;24.90;75.80;;;26.26;47.33;100245.84;5030696;28;20613;-69
2022/08/04 02:31:34;;;;;;;4.00;3.20;;;25.00;75.00;;;26.19;47.72;100240.56;4997940;28;21417;-69
2022/08/04 02:34:29;;;;;;;4.90;4.40;;;25.00;74.90;;;26.04;47.64;100242.75;5011119;28;20640;-69
2022/08/04 02:36:58;;;;;;;4.80;4.00;;;24.90;74.80;;;26.01;47.32;100238.66;5012022;28;20611;-71
2022/08/04 02:39:32;;;;;;;4.63;4.23;;;24.90;74.80;;;26.10;47.28;100242.72;5008179;28;21229;-70
2022/08/04 02:42:16;;;;;;;8.43;4.10;;;24.90;74.80;;;26.06;47.17;100240.66;4995867;28;20642;-73
2022/08/04 02:44:49;;;;;;;8.07;3.43;;;24.80;74.50;;;26.04;47.16;100237.38;5001067;28;20736;-72
2022/08/04 02:47:20;;;;;;;7.53;4.70;;;24.80;74.50;;;26.00;47.19;100238.88;5011751;28;20716;-69
2022/08/04 02:49:50;;;;;;;8.30;4.70;;;24.80;74.50;;;25.98;47.44;100238.28;4995265;28;20694;-71
2022/08/04 02:52:20;;;;;;;5.37;4.50;;;24.80;74.90;;;25.97;47.63;100234.78;5030113;28;21012;-69
2022/08/04 02:54:52;;;;;;;5.83;4.10;;;24.80;75.00;;;25.91;47.61;100241.00;5013594;28;20735;-69
2022/08/04 02:57:28;;;;;;;6.30;4.10;;;24.70;75.00;;;25.87;47.39;100237.13;5013929;28;20619;-73
2022/08/04 03:00:14;;;;;;;8.90;4.60;;;24.70;75.20;;;25.88;47.79;100237.94;5013563;28;20660;-69
2022/08/04 03:03:20;;;;;;;8.33;4.27;;;24.70;75.60;;;25.84;47.93;100237.56;5014009;28;20625;-70
2022/08/04 03:06:12;;;;;;;5.93;4.00;;;24.70;75.70;;;25.84;47.66;100242.91;5011923;28;20727;-71
2022/08/04 03:09:17;;;;;;;4.43;3.77;;;24.70;75.60;;;25.83;47.79;100241.25;5027746;28;20665;-70
2022/08/04 03:12:04;;;;;;;5.60;4.17;;;24.70;75.60;;;25.81;47.91;100240.66;5029100;28;20644;-69
2022/08/04 03:15:08;;;;;;;7.20;4.13;;;24.60;75.40;;;25.73;47.93;100240.94;5027738;28;20627;-69
2022/08/04 03:18:20;;;;;;;7.53;3.63;;;24.60;75.80;;;25.83;47.99;100246.59;5034583;28;20635;-71
2022/08/04 03:21:17;;;;;;;5.27;3.70;;;24.60;75.70;;;25.79;47.78;100240.06;5031089;28;20664;-69
2022/08/04 03:24:24;;;;;;;4.63;3.63;;;24.60;75.80;;;25.73;48.11;100245.44;5031740;28;20612;-69
2022/08/04 03:27:09;;;;;;;4.40;3.87;;;24.60;76.10;;;25.75;48.14;100243.38;5032657;28;20628;-71
2022/08/04 03:30:08;;;;;;;3.70;3.37;;;24.60;76.20;;;25.70;47.95;100245.91;5032800;28;20616;-69
2022/08/04 03:32:50;;;;;;;7.07;3.63;;;24.60;76.40;;;25.65;48.36;100251.91;4995404;28;21323;-69
2022/08/04 03:35:42;;;;;;;3.53;3.23;;;24.50;76.50;;;25.55;48.47;100248.91;5032080;28;20783;-69
2022/08/04 03:38:43;;;;;;;4.83;3.73;;;24.50;76.80;;;25.51;48.57;100245.03;5015628;28;20604;-69
2022/08/04 03:41:52;;;;;;;4.30;3.43;;;24.40;76.90;;;25.62;48.28;100249.66;5017071;28;20680;-69
2022/08/04 03:45:06;;;;;;;5.63;3.97;;;24.40;77.00;;;25.45;48.96;100242.41;5034195;28;20731;-71
2022/08/04 03:48:18;;;;;;;4.77;3.60;;;24.30;77.10;;;25.25;49.47;100254.00;5016654;28;20664;-69
2022/08/04 03:53:07;;;;;;;4.73;3.47;;;24.20;77.80;;;25.23;49.28;100255.22;5015230;28;20648;-69
2022/08/04 03:54:29;;;;;;;4.33;3.93;;;24.10;78.30;;;25.28;49.65;100253.53;5012785;28;20616;-69
2022/08/04 03:57:29;;;;;;;5.37;3.57;;;24.20;78.70;;;25.23;49.43;100261.41;5013996;28;20647;-69
2022/08/04 04:00:12;;;;;;;5.57;3.67;;;24.10;79.40;;;25.16;49.41;100260.59;5033271;28;20664;-69
2022/08/04 04:03:10;;;;;;;4.17;3.57;;;24.10;78.70;;;25.24;48.88;100249.66;5033467;28;20639;-69
2022/08/04 04:06:26;;;;;;;4.23;3.30;;;24.10;78.40;;;25.10;49.67;100252.63;5034084;28;20703;-71
2022/08/04 04:09:55;;;;;;;7.23;4.13;;;24.00;78.70;;;25.06;49.74;100254.09;5033499;28;20635;-69
2022/08/04 04:12:51;;;;;;;6.53;4.30;;;23.90;79.30;;;25.02;49.54;100261.69;4981652;28;20711;-70
2022/08/04 04:15:32;;;;;;;5.07;4.00;;;23.90;79.60;;;25.12;49.52;100254.06;5031619;28;20636;-70
2022/08/04 04:18:51;;;;;;;7.70;4.40;;;24.00;79.90;;;25.25;49.71;100266.50;5031624;28;20721;-69
2022/08/04 04:21:51;;;;;;;7.63;3.80;;;24.10;79.80;;;25.40;48.53;100277.72;5031175;28;21045;-70
2022/08/04 04:24:50;;;;;;;4.80;4.00;;;24.20;79.20;;;25.38;48.62;100280.59;5032367;28;20627;-71
2022/08/04 04:28:13;;;;;;;8.03;4.60;;;24.20;78.80;;;25.34;49.27;100270.56;5013193;28;20641;-72
2022/08/04 04:31:19;;;;;;;7.10;3.87;;;24.20;79.20;;;25.48;48.52;100264.13;4941405;28;20664;-69
2022/08/04 04:34:30;;;;;;;9.47;5.20;;;24.30;79.00;;;25.53;48.59;100261.66;4931851;29;20720;-72
2022/08/04 04:37:49;;;;;;;9.70;4.50;;;24.40;78.80;;;25.71;48.25;100274.25;4995774;28;20616;-73
2022/08/04 04:40:48;;;;;;;5.47;4.30;;;24.50;78.60;;;25.92;47.56;100277.38;5024628;28;20673;-70
2022/08/04 04:43:40;;;;;;;14.10;4.63;;;24.70;78.10;;;26.08;47.52;100276.88;5031106;28;20659;-71
2022/08/04 04:46:58;;;;;;;9.70;4.40;;;24.80;77.40;;;26.28;46.37;100267.84;5027615;28;20613;-70
2022/08/04 04:49:39;;;;;;;5.53;4.10;;;25.00;76.40;;;26.42;46.43;100274.69;5032015;28;21199;-70
2022/08/04 04:52:29;;;;;;;5.10;4.13;;;25.20;76.40;;;26.64;45.83;100276.69;5009577;28;21043;-70
2022/08/04 04:55:26;;;;;;;5.00;4.47;;;25.30;76.00;;;26.78;45.26;100282.75;5007388;28;20621;-70
2022/08/04 04:57:59;;;;;;;5.27;3.83;;;25.50;75.10;;;26.81;45.23;100276.97;5013352;28;20655;-70
2022/08/04 05:00:46;;;;;;;7.97;4.87;;;25.60;74.90;;;26.83;45.14;100283.72;5012923;28;20663;-73
2022/08/04 05:03:39;;;;;;;5.03;4.03;;;25.60;74.70;;;27.02;44.71;100279.19;5026789;28;20613;-70
2022/08/04 05:07:15;;;;;;;8.90;4.90;;;25.70;74.50;;;27.28;44.52;100280.69;5030606;28;20643;-72
2022/08/04 05:10:02;;;;;;;6.53;4.40;;;26.00;74.00;;;27.60;43.66;100282.09;5031127;28;20670;-71
2022/08/04 05:13:30;;;;;;;5.97;4.00;;;26.30;73.30;;;27.93;42.95;100289.63;5030595;28;20641;-71
2022/08/04 05:16:36;;;;;;;5.90;4.17;;;26.50;72.70;;;28.14;42.83;100286.41;5016795;28;20644;-70
2022/08/04 05:19:44;;;;;;;5.27;4.00;;;26.80;72.10;;;28.32;42.09;100297.03;5012200;28;20675;-69
2022/08/04 05:22:24;;;;;;;9.33;4.50;;;27.00;70.80;;;28.44;41.72;100292.47;5026221;28;20676;-73
2022/08/04 05:25:02;;;;;;;8.10;4.80;;;27.10;70.50;;;28.82;41.45;100292.81;5013891;28;20623;-70
2022/08/04 05:27:40;;;;;;;8.37;4.70;;;27.40;70.40;;;29.25;40.40;100291.53;5031909;28;20631;-70
2022/08/04 05:30:09;;;;;;;9.20;5.00;;;27.80;69.70;;;29.62;40.15;100290.88;5013115;28;20624;-70
2022/08/04 05:32:58;;;;;;;9.87;4.93;;;28.20;68.90;;;29.94;39.70;100291.19;5013117;28;20629;-70
2022/08/04 05:35:44;;;;;;;6.30;4.53;;;28.50;68.40;;;30.26;38.03;100294.09;5012270;28;20625;-69
2022/08/04 05:38:37;;;;;;;5.17;4.47;;;28.80;66.60;;;30.44;37.33;100291.97;5001779;28;20593;-70
2022/08/04 05:41:07;;;;;;;9.87;4.60;;;29.00;65.60;;;30.76;37.34;100297.53;5012686;28;20744;-70
2022/08/04 05:43:37;;;;;;;5.67;3.90;;;29.20;65.40;;;31.11;36.43;100303.38;5014438;28;21176;-69
2022/08/04 05:46:04;;;;;;;5.20;4.73;;;29.50;64.90;;;31.39;35.58;100299.66;5013528;28;21015;-70
2022/08/04 05:48:33;;;;;;;5.03;4.30;;;29.70;63.90;;;31.73;35.24;100292.97;5028925;28;20641;-70
2022/08/04 05:51:02;;;;;;;5.77;5.10;;;30.00;63.50;;;32.00;34.95;100299.19;4996823;28;20659;-70
2022/08/04 05:53:30;;;;;;;6.70;4.87;;;30.30;63.10;;;32.57;33.91;100298.50;5029990;28;20621;-74
2022/08/04 05:55:59;;;;;;;7.17;4.87;;;30.70;62.60;;;33.08;33.07;100307.66;5030832;28;20617;-72
2022/08/04 05:58:29;;;;;;;4.83;4.20;;;31.20;61.80;;;33.67;32.70;100308.09;5014184;28;20675;-70
2022/08/04 06:01:00;;;;;;;6.33;4.33;;;31.70;60.90;;;34.31;31.42;100309.16;5014254;28;20679;-70
2022/08/04 06:03:30;;;;;;;4.77;4.10;;;32.20;59.50;;;34.84;30.38;100308.50;5013419;28;20644;-70
2022/08/04 06:05:58;;;;;;;6.90;5.10;;;32.60;58.80;;;35.45;29.84;100317.19;5011400;28;20629;-73
2022/08/04 06:08:25;;;;;;;5.20;4.70;;;33.00;58.40;;;36.08;29.07;100311.88;5012149;28;21188;-74
2022/08/04 06:10:56;;;;;;;8.30;4.30;;;33.50;58.40;;;36.64;27.82;100314.81;5029708;28;20660;-70
2022/08/04 06:13:29;;;;;;;8.30;4.93;;;34.00;57.00;;;36.89;27.83;100309.13;5013345;28;20613;-70
2022/08/04 06:16:22;;;;;;;6.23;5.43;;;34.30;56.40;;;37.03;26.93;100308.13;5029129;28;20629;-71
2022/08/04 06:19:03;;;;;;;9.77;4.83;;;34.50;54.90;;;37.69;26.29;100312.63;5013146;28;20668;-70
2022/08/04 06:21:54;;;;;;;5.67;5.17;;;34.70;54.80;;;38.24;26.43;100308.16;5046822;23;20691;-65
2022/08/04 06:24:25;;;;;;;6.73;5.20;;;35.00;54.60;;;39.22;24.91;100308.41;5053324;28;20592;-64
2022/08/04 06:26:53;;;;;;;7.93;4.53;;;35.70;54.00;;;40.25;24.04;100310.00;5052401;28;20609;-64
2022/08/04 06:29:25;;;;;;;7.40;4.67;;;36.40;53.30;;;41.10;22.92;100313.38;5053117;28;20617;-64
2022/08/04 06:31:57;;;;;;;5.50;5.03;;;36.90;52.30;;;41.91;22.31;100317.94;5054162;28;20688;-64
2022/08/04 06:34:44;;;;;;;5.63;5.13;;;37.60;51.70;;;42.67;20.68;100318.03;5057197;28;20614;-65
2022/08/04 06:37:12;;;;;;;5.40;5.00;;;38.10;50.30;;;43.16;20.37;100326.31;5064572;28;20732;-64
2022/08/04 06:40:02;;;;;;;5.83;5.07;;;38.50;49.90;;;43.98;19.94;100321.88;5050388;28;20644;-65
2022/08/04 06:42:50;;;;;;;5.43;4.93;;;39.10;49.00;;;44.90;18.82;100328.56;5048560;28;21085;-64
2022/08/04 06:45:19;;;;;;;5.87;5.23;;;39.60;48.20;;;45.07;18.75;100327.50;5050348;28;20707;-65
2022/08/04 06:47:47;;;;;;;6.17;5.30;;;39.90;47.60;;;45.28;18.44;100328.97;5030401;28;21007;-65
2022/08/04 06:50:16;;;;;;;6.13;4.80;;;40.00;47.10;;;45.73;17.49;100333.41;5050921;28;20731;-65
2022/08/04 06:53:03;;;;;;;5.40;4.63;;;40.30;46.80;;;46.42;17.42;100332.94;5046567;28;20636;-65
2022/08/04 06:55:32;;;;;;;8.13;5.27;;;41.00;46.40;;;47.13;17.01;100325.22;5034060;28;20958;-64
2022/08/04 06:58:01;;;;;;;5.43;4.93;;;41.40;46.00;;;47.65;16.47;100330.22;5035209;28;21002;-64
2022/08/04 07:00:31;;;;;;;5.23;4.67;;;41.60;45.80;;;48.05;16.34;100333.38;5035276;28;20753;-64
2022/08/04 07:02:58;;;;;;;5.63;4.37;;;41.70;45.60;;;48.25;15.85;100323.09;5052980;28;20652;-64
2022/08/04 07:05:25;;;;;;;5.97;4.70;;;41.90;45.30;;;48.26;15.97;100328.25;5044432;28;20648;-64
2022/08/04 07:07:53;;;;;;;4.50;4.20;;;42.00;44.90;;;48.36;15.83;100324.06;5043937;28;20721;-64
2022/08/04 07:10:26;;;;;;;4.73;4.30;;;42.00;44.80;;;47.80;16.45;100321.06;5052244;28;21246;-64
2022/08/04 07:12:56;;;;;;;4.73;4.43;;;41.90;44.50;;;47.70;16.18;100318.06;5052946;28;20694;-64
2022/08/04 07:15:24;;;;;;;4.70;4.40;;;41.90;44.60;;;47.37;16.82;100316.66;5049900;28;20636;-65
2022/08/04 07:17:53;;;;;;;4.60;4.20;;;41.70;45.40;;;47.11;17.03;100316.44;5047840;28;20632;-64
2022/08/04 07:20:20;;;;;;;4.53;4.20;;;41.50;44.80;;;46.60;17.39;100326.69;5051662;28;20659;-64
2022/08/04 07:23:04;;;;;;;4.00;3.70;;;41.20;44.80;;;46.04;17.64;100322.50;5044027;28;20644;-64
2022/08/04 07:25:36;;;;;;;4.50;4.20;;;41.00;44.90;;;45.36;18.46;100319.75;5051822;28;20622;-64
2022/08/04 07:28:27;;;;;;;8.80;4.17;;;40.70;45.10;;;44.51;19.15;100310.78;5033784;28;21176;-65
2022/08/04 07:30:57;;;;;;;4.23;3.93;;;40.30;45.30;;;43.91;19.97;100314.22;5024514;28;20635;-64
2022/08/04 07:33:24;;;;;;;4.23;3.93;;;40.00;45.50;;;43.75;19.65;100307.75;5051545;28;20731;-66
2022/08/04 07:35:55;;;;;;;4.47;4.07;;;39.80;45.70;;;43.31;20.53;100302.97;5050983;28;20864;-65
2022/08/04 07:38:39;;;;;;;4.50;4.20;;;39.60;45.90;;;42.50;21.11;100302.47;5052125;28;20615;-65
2022/08/04 07:41:23;;;;;;;3.63;3.43;;;39.10;46.30;;;41.03;22.19;100305.66;5043910;28;20679;-65
2022/08/04 07:44:07;;;;;;;3.63;3.30;;;38.60;46.00;;;40.72;22.61;100297.50;5036744;28;20620;-66
2022/08/04 07:46:36;;;;;;;3.27;3.00;;;37.80;46.80;;;38.88;25.00;100302.59;5033380;28;20616;-66
2022/08/04 07:49:04;;;;;;;4.97;3.40;;;36.50;47.80;;;39.22;24.39;100302.16;5033670;28;21202;-66
2022/08/04 07:51:34;;;;;;;6.60;3.60;;;36.30;48.60;;;38.39;25.22;100305.19;5031324;28;20656;-66
2022/08/04 07:54:03;;;;;;;5.13;3.20;;;35.80;49.20;;;38.20;26.34;100297.06;5059546;28;20616;-66
2022/08/04 07:56:39;;;;;;;4.03;3.20;;;35.60;49.80;;;38.12;25.70;100297.78;5035356;28;20612;-65
2022/08/04 07:59:07;;;;;;;3.30;3.10;;;35.60;50.00;;;38.22;25.75;100294.84;5053720;28;20618;-65
2022/08/04 08:01:35;;;;;;;7.83;3.17;;;35.60;50.20;;;38.45;25.94;100307.53;5033200;28;20988;-65
2022/08/04 08:04:06;;;;;;;3.17;2.97;;;35.90;50.10;;;37.12;27.52;100300.91;5052284;28;20622;-65
2022/08/04 08:06:36;;;;;;;3.53;3.33;;;35.30;50.70;;;37.02;27.83;100301.06;5046225;28;20633;-65
2022/08/04 08:09:14;;;;;;;3.73;3.47;;;35.00;51.20;;;37.04;28.18;100304.28;5032168;28;20632;-65
2022/08/04 08:11:47;;;;;;;3.67;3.23;;;34.90;51.50;;;37.02;28.27;100297.53;5030402;28;20922;-65
2022/08/04 08:14:35;;;;;;;3.30;3.10;;;34.90;51.40;;;36.63;28.52;100300.44;5035464;28;20600;-65
2022/08/04 08:17:03;;;;;;;3.37;3.10;;;34.90;51.80;;;36.43;28.91;100295.22;5035615;28;21167;-65
2022/08/04 08:19:31;;;;;;;3.30;3.10;;;34.80;51.90;;;36.36;29.33;100287.38;5053525;28;20659;-65
2022/08/04 08:21:59;;;;;;;3.43;3.20;;;34.80;52.30;;;36.41;29.33;100284.63;5052917;28;21159;-65
2022/08/04 08:24:30;;;;;;;3.50;3.30;;;34.80;52.20;;;35.79;30.25;100285.47;5036231;28;20620;-66
2022/08/04 08:27:05;;;;;;;3.83;3.63;;;34.50;52.60;;;36.06;29.63;100282.25;5033481;28;21184;-66
2022/08/04 08:29:34;;;;;;;5.17;3.70;;;34.50;52.60;;;36.27;29.21;100285.59;5052474;28;20615;-65
2022/08/04 08:32:03;;;;;;;3.33;3.17;;;34.50;52.20;;;35.77;29.55;100282.22;5051512;28;20640;-65
2022/08/04 08:34:36;;;;;;;3.93;3.53;;;34.40;52.40;;;35.70;30.03;100286.34;5051814;28;21264;-65
2022/08/04 08:37:32;;;;;;;3.97;3.27;;;34.20;52.60;;;35.30;30.51;100282.00;5047449;28;20987;-65
2022/08/04 08:40:34;;;;;;;9.70;3.27;;;34.10;52.50;;;35.83;30.02;100281.09;5033187;28;20672;-65
2022/08/04 08:43:42;;;;;;;5.00;3.67;;;34.00;53.00;;;36.54;29.03;100281.25;5052007;28;20679;-66
2022/08/04 08:47:18;;;;;;;4.00;3.70;;;34.50;53.00;;;36.61;29.03;100288.25;5037493;28;20596;-64
2022/08/04 08:50:57;;;;;;;4.53;4.03;;;34.70;52.30;;;36.46;29.08;100286.50;5034860;28;21179;-65
2022/08/04 08:53:44;;;;;;;9.83;7.40;;;34.70;52.10;;;35.99;29.66;100289.97;4970481;28;20627;-64
2022/08/04 08:56:52;;;;;;;13.43;10.67;;;34.60;52.30;;;36.27;29.32;100285.59;4952496;28;20738;-63
2022/08/04 08:59:53;;;;;;;3.80;3.60;;;34.50;52.60;;;36.32;29.45;100280.91;5044506;28;20646;-65
2022/08/04 09:02:25;;;;;;;3.83;3.60;;;34.60;52.60;;;36.67;29.18;100292.53;5045935;28;21361;-64
2022/08/04 09:05:36;;;;;;;3.53;3.33;;;34.90;52.50;;;36.43;29.41;100290.63;5051520;28;20610;-64
2022/08/04 09:08:32;;;;;;;4.93;4.33;;;34.90;52.40;;;36.68;29.06;100285.97;5038141;28;20638;-65
2022/08/04 09:11:25;;;;;;;4.27;3.97;;;35.00;52.40;;;37.13;28.50;100282.69;5049095;28;21487;-65
2022/08/04 09:14:23;;;;;;;4.57;3.23;;;35.30;52.10;;;36.26;28.56;100279.34;5033573;28;21104;-66
2022/08/04 09:17:26;;;;;;;9.37;3.50;;;35.10;51.20;;;36.12;29.53;100283.81;5050189;28;20649;-65
2022/08/04 09:20:26;;;;;;;4.03;3.40;;;34.80;52.10;;;36.38;29.32;100287.09;5050365;28;21215;-64
2022/08/04 09:23:22;;;;;;;3.40;3.07;;;34.80;52.50;;;35.94;29.62;100287.25;5048899;28;21238;-64
2022/08/04 09:26:20;;;;;;;4.00;3.60;;;34.70;52.80;;;36.42;29.39;100288.97;5045699;28;20615;-64
2022/08/04 09:29:07;;;;;;;4.03;3.73;;;34.80;52.60;;;36.41;29.44;100284.63;5030417;28;20709;-65
2022/08/04 09:31:59;;;;;;;3.80;3.40;;;34.90;52.40;;;36.76;29.34;100291.56;5031972;28;20695;-65
2022/08/04 09:34:36;;;;;;;4.83;3.67;;;34.90;53.40;;;37.12;28.94;100290.03;5030652;28;20648;-65
2022/08/04 09:37:22;;;;;;;4.13;3.87;;;35.30;52.50;;;36.79;29.13;100295.63;5045769;28;21245;-65
2022/08/04 09:40:19;;;;;;;5.00;3.83;;;35.30;52.10;;;36.71;28.98;100290.84;5051247;28;20644;-65
2022/08/04 09:43:30;;;;;;;3.73;3.53;;;35.10;52.20;;;37.24;28.69;100295.06;5036929;28;20632;-65
2022/08/04 09:46:28;;;;;;;3.80;3.50;;;35.50;52.00;;;37.27;28.42;100286.28;5036608;28;20604;-64
2022/08/04 09:49:18;;;;;;;8.20;4.60;;;35.60;51.90;;;37.56;28.82;100292.41;5043421;28;20640;-65
2022/08/04 09:52:42;;;;;;;4.07;3.67;;;35.70;52.40;;;37.42;28.46;100280.66;5024725;28;20648;-65
2022/08/04 09:55:49;;;;;;;6.33;4.20;;;35.90;51.50;;;37.51;28.47;100295.22;5011929;28;20638;-65
2022/08/04 09:58:49;;;;;;;4.07;3.70;;;35.80;51.60;;;37.62;28.28;100293.94;5050039;28;20711;-65
2022/08/04 10:01:20;;;;;;;3.90;3.70;;;35.80;51.90;;;37.38;27.73;100276.13;5049938;28;20672;-65
2022/08/04 10:03:59;;;;;;;3.27;2.97;;;35.80;50.80;;;37.36;28.64;100275.56;5048054;28;20636;-65
2022/08/04 10:07:09;;;;;;;3.80;3.50;;;35.70;51.60;;;37.46;27.97;100275.44;5031915;28;20612;-65
2022/08/04 10:10:12;;;;;;;3.87;3.57;;;35.80;51.50;;;37.61;28.03;100277.94;5020883;28;21195;-64
2022/08/04 10:13:10;;;;;;;4.00;3.73;;;36.00;51.30;;;37.42;28.42;100269.75;5039058;28;20725;-64
2022/08/04 10:15:55;;;;;;;3.83;3.53;;;36.00;51.90;;;37.69;27.48;100269.88;5051590;28;21043;-66
2022/08/04 10:19:01;;;;;;;6.67;3.87;;;36.00;51.20;;;37.67;27.83;100260.41;5026212;28;20635;-65
2022/08/04 10:21:52;;;;;;;3.80;3.60;;;35.90;51.60;;;37.67;27.47;100263.94;5048369;28;21106;-65
2022/08/04 10:25:44;;;;;;;4.43;4.13;;;36.00;51.00;;;37.86;27.77;100253.84;5043654;28;20623;-65
2022/08/04 10:28:42;;;;;;;3.70;3.50;;;36.10;51.50;;;38.00;27.91;100260.09;4987062;28;21059;-65
2022/08/04 10:31:16;;;;;;;5.37;3.60;;;36.30;51.00;;;38.05;26.95;100257.31;5039718;28;20631;-65
2022/08/04 10:33:59;;;;;;;5.93;3.60;;;36.30;51.10;;;38.19;26.90;100246.41;5039293;28;20620;-65
2022/08/04 10:37:05;;;;;;;8.93;8.07;;;36.40;50.40;;;37.89;26.60;100253.22;5057271;28;20626;-65
2022/08/04 10:43:24;;;;;;;3.50;3.30;;;36.10;50.10;;;37.82;27.23;100246.56;5057031;28;21033;-64
2022/08/04 10:46:20;;;;;;;7.83;3.30;;;36.20;50.10;;;37.72;26.63;100244.78;5039764;28;20624;-64
2022/08/04 10:48:59;;;;;;;4.13;3.27;;;36.20;49.40;;;37.58;26.76;100241.22;5039313;28;20630;-64
2022/08/04 10:52:02;;;;;;;3.20;3.00;;;36.10;49.20;;;37.36;26.59;100243.75;5039497;28;20635;-64
2022/08/04 10:54:57;;;;;;;2.90;2.80;;;36.00;48.80;;;37.57;25.56;100239.59;5053100;28;20651;-64
2022/08/04 10:57:43;;;;;;;2.83;2.73;;;36.00;48.90;;;37.66;26.02;100237.81;5060195;28;20706;-64
2022/08/04 11:00:18;;;;;;;3.00;2.90;;;36.00;49.20;;;37.94;26.16;100235.97;5040044;28;20994;-64
2022/08/04 11:03:23;;;;;;;3.77;3.57;;;36.10;48.90;;;37.73;25.65;100238.22;5040450;28;20730;-65
2022/08/04 11:05:58;;;;;;;2.73;2.63;;;36.10;48.60;;;37.74;25.91;100239.06;5039399;28;20630;-65
2022/08/04 11:08:35;;;;;;;2.90;2.80;;;36.00;48.70;;;37.61;26.37;100231.66;5056475;28;20615;-65
2022/08/04 11:11:37;;;;;;;3.03;2.93;;;36.00;48.80;;;37.56;26.22;100231.72;5039392;28;20630;-65
2022/08/04 11:14:32;;;;;;;3.40;3.30;;;36.00;49.00;;;37.33;27.26;100222.56;5041428;28;20627;-65
2022/08/04 11:17:21;;;;;;;3.30;3.20;;;35.80;49.50;;;37.27;26.56;100227.25;5039264;28;20629;-65
2022/08/04 11:20:10;;;;;;;3.03;2.93;;;35.80;48.90;;;37.23;26.35;100228.94;5038751;28;21191;-66
2022/08/04 11:23:05;;;;;;;3.27;3.10;;;35.70;49.00;;;37.28;26.67;100219.91;5062175;28;20655;-65
2022/08/04 11:25:50;;;;;;;2.97;2.87;;;35.70;49.80;;;37.29;26.91;100222.31;5059828;28;21209;-65
2022/08/04 11:29:00;;;;;;;3.23;3.03;;;35.70;49.20;;;37.22;26.76;100223.81;5040002;28;20670;-65
2022/08/04 11:31:39;;;;;;;3.00;2.80;;;35.70;49.00;;;37.25;26.28;100217.75;5040219;28;20718;-65
2022/08/04 11:34:15;;;;;;;3.47;3.27;;;35.70;49.10;;;37.36;26.29;100213.00;5039780;28;20714;-64